Flight Number: EUR1377 Duration: 2:00
Departure: Vágar Airport (EKVG) at 21:15 Distance: 696 Nm
Arrival: Gatwick Airport (EGKK) at 23:15 Equipment: CRJ700

Weather Information
Soervaag / Vagar, Denmark (EKVG) 62-04N 007-17W 92M Oct 19, 2018 - 02:20 PM EDT / 2018.10.19 1820 UTC
Wind: from the W (260 degrees) at 17 MPH (15 KT) gusting to 31 MPH (27 KT) (direction variable):0
Sky conditions: mostly cloudy Weather: light rain Temperature: 44 F (7 C) Dew Point: 39 F (4 C) Relative Humidity: 81% Pressure (altimeter): 29.88 in. Hg (1012 hPa)
ob: EKVG 191820Z AUTO 26015G27KT 200V290 9999NDV -RA BKN020/// 07/04 Q1012 cycle: 18
Sunrise: 07:31 Sunset: 16:56 (UTC)

London / Gatwick Airport, United Kingdom (EGKK) 51-09N 000-11W 0M Oct 19, 2018 - 02:20 PM EDT / 2018.10.19 1820 UTC
Wind: Variable at 2 MPH (2 KT):0
Visibility: greater than 7 mile(s):0 Temperature: 51 F (11 C) Dew Point: 44 F (7 C) Relative Humidity: 76% Pressure (altimeter): 30.33 in. Hg (1027 hPa)
ob: EGKK 191820Z VRB02KT CAVOK 11/07 Q1027 cycle: 18
Sunrise: 06:35 Sunset: 16:55 (UTC)

TAF:2018/10/19 18:12 TAF EGKK 191707Z 1918/2024 34004KT CAVOK BECMG 1922/2001 6000 PROB30 2001/2009 0500 FG VV/// BECMG 2009/2012 CAVOK BECMG 2021/2024 5000 HZ

This route has never been flown.

Route map